Time;durP1;ratioP1;P1;durP2;ratioP2;P2;SDS_P1;SDS_P2;PMS_P1;PMS_P2;Temp;Humidity;BMP_temperature;BMP_pressure;BME280_temperature;BME280_humidity;BME280_pressure;Samples;Min_cycle;Max_cycle;Signal;HPM_P1;HPM_P2
2022/08/29 00:00:33;;;;;;;0.63;0.32;;;18.00;99.90;;;;;;4997918;28;20046;-70
2022/08/29 00:02:58;;;;;;;0.00;0.00;;;18.00;99.90;;;;;;4996667;28;20413;-70
2022/08/29 00:05:28;;;;;;;0.00;0.00;;;18.00;99.90;;;;;;4993049;28;20042;-70
2022/08/29 00:07:55;;;;;;;0.45;0.45;;;18.00;99.90;;;;;;5008485;28;20046;-70
2022/08/29 00:10:21;;;;;;;0.00;0.00;;;18.00;99.90;;;;;;5011675;28;20050;-70
2022/08/29 00:12:47;;;;;;;0.10;0.10;;;18.00;99.90;;;;;;4996688;28;20047;-70
2022/08/29 00:15:13;;;;;;;0.00;0.00;;;18.00;99.90;;;;;;4998547;28;20045;-70
2022/08/29 00:17:39;;;;;;;0.93;0.65;;;17.90;99.90;;;;;;5011694;28;20062;-70
2022/08/29 00:20:08;;;;;;;0.32;0.32;;;17.90;99.90;;;;;;4998053;28;20516;-70
2022/08/29 00:22:33;;;;;;;0.20;0.20;;;17.90;99.90;;;;;;4998265;28;20045;-70
2022/08/29 00:25:03;;;;;;;0.10;0.10;;;17.80;99.90;;;;;;5005175;28;20048;-70
2022/08/29 00:27:29;;;;;;;0.38;0.38;;;17.90;99.90;;;;;;4991572;28;20057;-70
2022/08/29 00:29:55;;;;;;;0.00;0.00;;;17.80;99.90;;;;;;4994574;28;20140;-70
2022/08/29 00:32:20;;;;;;;0.00;0.00;;;17.90;99.90;;;;;;5009701;28;20121;-70
2022/08/29 00:34:46;;;;;;;0.00;0.00;;;17.90;99.90;;;;;;4997827;28;20046;-70
2022/08/29 00:37:12;;;;;;;0.10;0.10;;;17.90;99.90;;;;;;4990887;28;20046;-70
2022/08/29 00:39:37;;;;;;;0.00;0.00;;;17.90;99.90;;;;;;4995996;28;20041;-70
2022/08/29 00:42:04;;;;;;;0.15;0.15;;;17.90;99.90;;;;;;5009099;28;20045;-70
2022/08/29 00:44:30;;;;;;;0.00;0.00;;;17.90;99.90;;;;;;5011685;28;20044;-70
2022/08/29 00:46:59;;;;;;;0.00;0.00;;;17.90;99.90;;;;;;5002482;28;20054;-70
2022/08/29 00:49:37;;;;;;;0.10;0.10;;;17.90;99.90;;;;;;4991638;28;20043;-70
2022/08/29 00:52:09;;;;;;;0.00;0.00;;;17.90;99.90;;;;;;4993647;28;20074;-70
2022/08/29 00:54:36;;;;;;;0.03;0.03;;;18.00;99.90;;;;;;4998893;28;20077;-70
2022/08/29 00:57:01;;;;;;;0.05;0.05;;;18.00;99.90;;;;;;4991591;28;20046;-70
2022/08/29 00:59:33;;;;;;;0.05;0.05;;;17.90;99.90;;;;;;4998740;28;20046;-70
2022/08/29 01:01:59;;;;;;;0.00;0.00;;;18.00;99.90;;;;;;5001235;28;20065;-70
2022/08/29 01:04:25;;;;;;;0.63;0.63;;;18.00;99.90;;;;;;5009242;28;20042;-70
2022/08/29 01:06:52;;;;;;;0.05;0.05;;;17.90;99.90;;;;;;5008019;28;20050;-70
2022/08/29 01:09:19;;;;;;;0.00;0.00;;;18.00;99.90;;;;;;5007529;28;20449;-70
2022/08/29 01:14:29;;;;;;;0.57;0.43;;;18.00;99.90;;;;;;4990879;28;20058;-70
2022/08/29 01:16:57;;;;;;;1.00;0.82;;;18.00;99.90;;;;;;4999023;28;20045;-70
2022/08/29 01:19:44;;;;;;;0.00;0.00;;;18.00;99.90;;;;;;4994038;28;20056;-70
2022/08/29 01:22:22;;;;;;;0.00;0.00;;;18.00;99.90;;;;;;5007130;28;20053;-70
2022/08/29 01:24:51;;;;;;;0.65;0.45;;;18.00;99.90;;;;;;4999042;28;20050;-70
2022/08/29 01:27:21;;;;;;;0.28;0.28;;;18.00;99.90;;;;;;4990866;28;20042;-70
2022/08/29 01:29:47;;;;;;;0.03;0.03;;;18.00;99.90;;;;;;4990711;28;20056;-70
2022/08/29 01:32:13;;;;;;;0.03;0.03;;;18.00;99.90;;;;;;4991501;28;20050;-70
2022/08/29 01:34:39;;;;;;;0.35;0.35;;;17.90;99.90;;;;;;4990318;28;20129;-70
2022/08/29 01:37:07;;;;;;;0.00;0.00;;;18.00;99.90;;;;;;4993371;28;20038;-70
2022/08/29 01:39:36;;;;;;;0.80;0.55;;;17.90;99.90;;;;;;4996905;28;20049;-70
2022/08/29 01:42:09;;;;;;;0.38;0.38;;;17.90;99.90;;;;;;5010147;28;20084;-70
2022/08/29 01:44:35;;;;;;;;;;;17.90;99.90;;;;;;5010012;28;20041;-70
2022/08/29 01:47:03;;;;;;;0.00;0.00;;;18.00;99.90;;;;;;5007451;28;19921;-71
2022/08/29 01:49:32;;;;;;;0.30;0.30;;;17.90;99.90;;;;;;5006389;28;20058;-70
2022/08/29 01:51:58;;;;;;;0.25;0.25;;;17.90;99.90;;;;;;4999170;28;20085;-70
2022/08/29 01:54:24;;;;;;;0.63;0.60;;;17.90;99.90;;;;;;4994347;28;20085;-70
2022/08/29 01:56:51;;;;;;;0.00;0.00;;;17.90;99.90;;;;;;5008454;28;20490;-70
2022/08/29 01:59:21;;;;;;;0.20;0.20;;;17.80;99.90;;;;;;5009619;28;20410;-70
2022/08/29 02:01:52;;;;;;;0.40;0.40;;;17.80;99.90;;;;;;4993972;28;20422;-70
2022/08/29 02:04:18;;;;;;;0.03;0.03;;;17.80;99.90;;;;;;4989321;28;20558;-70
2022/08/29 02:06:44;;;;;;;0.00;0.00;;;17.80;99.90;;;;;;5005383;28;20080;-71
2022/08/29 02:09:09;;;;;;;0.10;0.10;;;17.80;99.90;;;;;;4989740;28;20050;-70
2022/08/29 02:11:35;;;;;;;0.00;0.00;;;17.80;99.90;;;;;;4989571;28;20058;-70
2022/08/29 02:14:03;;;;;;;0.00;0.00;;;17.80;99.90;;;;;;4997456;28;20469;-70
2022/08/29 02:16:29;;;;;;;0.00;0.00;;;17.80;99.90;;;;;;5007766;28;20497;-70
2022/08/29 02:18:55;;;;;;;0.15;0.15;;;17.70;99.90;;;;;;5007525;28;20045;-70
2022/08/29 02:21:23;;;;;;;0.00;0.00;;;17.80;99.90;;;;;;4990760;28;20070;-70
2022/08/29 02:23:50;;;;;;;4.18;0.65;;;17.80;99.90;;;;;;4993181;28;20049;-71
2022/08/29 02:26:19;;;;;;;1.27;1.13;;;17.80;99.90;;;;;;5003885;28;20135;-70
2022/08/29 02:28:45;;;;;;;0.00;0.00;;;17.80;99.90;;;;;;5010415;28;20038;-70
2022/08/29 02:31:12;;;;;;;5.10;0.98;;;17.80;99.90;;;;;;5013014;28;20393;-70
2022/08/29 02:33:38;;;;;;;0.00;0.00;;;17.70;99.90;;;;;;4994521;28;20054;-70
2022/08/29 02:36:05;;;;;;;0.22;0.22;;;17.70;99.90;;;;;;4994246;28;20127;-70
2022/08/29 02:38:31;;;;;;;0.10;0.10;;;17.70;99.90;;;;;;4993910;28;20113;-70
2022/08/29 02:40:56;;;;;;;0.00;0.00;;;17.70;99.90;;;;;;4997903;28;20621;-70
2022/08/29 02:43:23;;;;;;;0.00;0.00;;;17.80;99.90;;;;;;4996515;28;20048;-70
2022/08/29 02:45:49;;;;;;;0.00;0.00;;;17.70;99.90;;;;;;5013336;28;20405;-70
2022/08/29 02:48:15;;;;;;;0.10;0.10;;;17.60;99.90;;;;;;5003986;28;20046;-70
2022/08/29 02:50:42;;;;;;;0.00;0.00;;;17.70;99.90;;;;;;4993871;28;20105;-70
2022/08/29 02:53:10;;;;;;;0.52;0.43;;;17.70;99.90;;;;;;4993829;28;20046;-71
2022/08/29 02:55:36;;;;;;;0.10;0.10;;;17.70;99.90;;;;;;5006841;28;20041;-71
2022/08/29 02:58:02;;;;;;;0.00;0.00;;;17.60;99.90;;;;;;5006271;28;20049;-71
2022/08/29 03:00:28;;;;;;;0.45;0.45;;;17.60;99.90;;;;;;5012008;28;20050;-71
2022/08/29 03:02:55;;;;;;;0.10;0.10;;;17.70;99.90;;;;;;5013160;28;20447;-71
2022/08/29 03:05:26;;;;;;;0.10;0.10;;;17.60;99.90;;;;;;5005637;28;20046;-70
2022/08/29 03:07:52;;;;;;;0.38;0.38;;;17.60;99.90;;;;;;4992825;28;20494;-70
2022/08/29 03:10:18;;;;;;;1.25;1.15;;;17.60;99.90;;;;;;5006570;28;20116;-70
2022/08/29 03:12:45;;;;;;;0.10;0.10;;;17.70;99.90;;;;;;5001813;28;20125;-70
2022/08/29 03:15:11;;;;;;;0.70;0.70;;;17.70;99.90;;;;;;4992954;28;20034;-70
2022/08/29 03:17:37;;;;;;;19.73;0.85;;;17.70;99.90;;;;;;4998871;28;20379;-71
2022/08/29 03:20:04;;;;;;;0.00;0.00;;;17.80;99.90;;;;;;4993098;28;20054;-71
2022/08/29 03:22:30;;;;;;;0.08;0.08;;;17.80;99.90;;;;;;4991859;28;20060;-70
2022/08/29 03:24:55;;;;;;;0.00;0.00;;;17.80;99.90;;;;;;4997997;28;20129;-70
2022/08/29 03:27:21;;;;;;;0.30;0.30;;;17.80;99.90;;;;;;4992965;28;20047;-70
2022/08/29 03:29:47;;;;;;;0.00;0.00;;;17.80;99.90;;;;;;4992427;28;20050;-71
2022/08/29 03:32:13;;;;;;;0.05;0.05;;;17.80;99.90;;;;;;4992049;28;20560;-71
2022/08/29 03:34:39;;;;;;;0.10;0.10;;;17.80;99.90;;;;;;5012066;28;20034;-71
2022/08/29 03:37:04;;;;;;;0.08;0.08;;;17.80;99.90;;;;;;5008890;28;20132;-71
2022/08/29 03:39:30;;;;;;;0.43;0.43;;;17.80;99.90;;;;;;5008862;28;20047;-71
2022/08/29 03:41:56;;;;;;;0.00;0.00;;;17.80;99.90;;;;;;4991485;28;20046;-71
2022/08/29 03:44:22;;;;;;;0.03;0.03;;;17.80;99.90;;;;;;4993595;28;20074;-71
2022/08/29 03:46:48;;;;;;;0.08;0.08;;;17.80;99.90;;;;;;5011332;28;20042;-71
2022/08/29 03:49:14;;;;;;;0.10;0.10;;;17.80;99.90;;;;;;5010161;28;20057;-71
2022/08/29 03:51:40;;;;;;;2.63;0.52;;;17.80;99.90;;;;;;5010519;28;20042;-72
2022/08/29 03:54:06;;;;;;;0.00;0.00;;;17.80;99.90;;;;;;4994745;28;20509;-71
2022/08/29 03:56:31;;;;;;;0.13;0.13;;;17.80;99.90;;;;;;4992996;28;20046;-71
2022/08/29 03:58:58;;;;;;;0.00;0.00;;;17.80;99.90;;;;;;4991922;28;20051;-71
2022/08/29 04:01:27;;;;;;;0.10;0.10;;;17.70;99.90;;;;;;4991735;28;20046;-71
2022/08/29 04:03:54;;;;;;;0.10;0.10;;;17.80;99.90;;;;;;4991872;28;20412;-71
2022/08/29 04:06:21;;;;;;;0.10;0.10;;;17.80;99.90;;;;;;4992357;28;20042;-71
2022/08/29 04:08:47;;;;;;;0.00;0.00;;;17.80;99.90;;;;;;4991716;28;20133;-71
2022/08/29 04:11:15;;;;;;;0.00;0.00;;;17.80;99.90;;;;;;4992969;28;20464;-70
2022/08/29 04:13:41;;;;;;;0.00;0.00;;;17.80;99.90;;;;;;4996990;28;20042;-71
2022/08/29 04:16:16;;;;;;;0.28;0.28;;;17.70;99.90;;;;;;4995742;28;20084;-71
2022/08/29 04:18:42;;;;;;;0.00;0.00;;;17.80;99.90;;;;;;5011296;28;20064;-70
2022/08/29 04:21:08;;;;;;;0.05;0.05;;;17.80;99.90;;;;;;4999624;28;20042;-70
2022/08/29 04:23:35;;;;;;;0.00;0.00;;;17.80;99.90;;;;;;4991908;28;20108;-70
2022/08/29 04:26:01;;;;;;;0.00;0.00;;;17.80;99.90;;;;;;4991116;28;20034;-70
2022/08/29 04:28:27;;;;;;;0.00;0.00;;;17.80;99.90;;;;;;4995818;28;20548;-70
2022/08/29 04:30:53;;;;;;;0.00;0.00;;;17.80;99.90;;;;;;4991566;28;20042;-70
2022/08/29 04:33:22;;;;;;;0.35;0.17;;;17.70;99.90;;;;;;5007249;28;20453;-71
2022/08/29 04:35:48;;;;;;;0.10;0.10;;;17.80;99.90;;;;;;5000868;28;20385;-71
2022/08/29 04:38:14;;;;;;;0.10;0.10;;;17.80;99.90;;;;;;5008367;28;20042;-71
2022/08/29 04:40:41;;;;;;;0.00;0.00;;;17.80;99.90;;;;;;4997413;28;20054;-71
2022/08/29 04:43:07;;;;;;;0.00;0.00;;;17.70;99.90;;;;;;4995149;28;20065;-71
2022/08/29 04:45:34;;;;;;;0.10;0.10;;;17.70;99.90;;;;;;4991701;28;20070;-71
2022/08/29 04:48:02;;;;;;;0.10;0.10;;;17.70;99.90;;;;;;5005427;28;21521;-71
2022/08/29 04:50:28;;;;;;;0.10;0.10;;;17.70;99.90;;;;;;5009798;28;20085;-71
2022/08/29 04:52:54;;;;;;;0.00;0.00;;;17.70;99.90;;;;;;5010366;28;20048;-71
2022/08/29 04:55:22;;;;;;;1.33;0.70;;;17.70;99.90;;;;;;5005789;28;20456;-71
2022/08/29 04:57:49;;;;;;;0.22;0.22;;;17.70;99.90;;;;;;4991108;28;20050;-71
2022/08/29 05:00:20;;;;;;;0.00;0.00;;;17.70;99.90;;;;;;5000879;28;20504;-71
2022/08/29 05:02:46;;;;;;;0.10;0.10;;;17.70;99.90;;;;;;5009691;28;20041;-71
2022/08/29 05:05:13;;;;;;;0.05;0.05;;;17.80;99.90;;;;;;5008820;28;20056;-71
2022/08/29 05:07:41;;;;;;;0.08;0.08;;;17.70;99.90;;;;;;5010083;28;20053;-71
2022/08/29 05:10:11;;;;;;;0.10;0.10;;;17.70;99.90;;;;;;5007521;28;20041;-71
2022/08/29 05:12:38;;;;;;;0.00;0.00;;;17.70;99.90;;;;;;4991382;28;20069;-71
2022/08/29 05:15:06;;;;;;;0.03;0.03;;;17.70;99.90;;;;;;4989519;28;20056;-71
2022/08/29 05:17:32;;;;;;;0.10;0.10;;;17.70;99.90;;;;;;5005992;28;20394;-71
2022/08/29 05:19:58;;;;;;;0.10;0.10;;;17.70;99.90;;;;;;5009282;28;20092;-71
2022/08/29 05:22:24;;;;;;;0.00;0.00;;;17.80;99.90;;;;;;5007887;28;20398;-71
2022/08/29 05:24:49;;;;;;;0.28;0.28;;;17.80;99.90;;;;;;5007380;28;20054;-71
2022/08/29 05:27:20;;;;;;;0.00;0.00;;;17.80;99.90;;;;;;5009131;28;20161;-71
2022/08/29 05:29:48;;;;;;;0.00;0.00;;;17.70;99.90;;;;;;5008867;28;20042;-71
2022/08/29 05:32:16;;;;;;;0.80;0.80;;;17.70;99.90;;;;;;5010285;28;20139;-71
2022/08/29 05:34:43;;;;;;;0.00;0.00;;;17.80;99.90;;;;;;5008531;28;20490;-71
2022/08/29 05:37:13;;;;;;;0.00;0.00;;;17.70;99.90;;;;;;5009034;28;20133;-71
2022/08/29 05:39:40;;;;;;;1.45;0.85;;;17.70;99.90;;;;;;5004291;28;20042;-72
2022/08/29 05:42:07;;;;;;;0.00;0.00;;;17.70;99.90;;;;;;4989980;28;20045;-71
2022/08/29 05:44:33;;;;;;;0.00;0.00;;;17.80;99.90;;;;;;4990745;28;20046;-71
2022/08/29 05:46:59;;;;;;;0.10;0.10;;;17.70;99.90;;;;;;5001593;28;20409;-72
2022/08/29 05:49:26;;;;;;;0.00;0.00;;;17.80;99.90;;;;;;4989513;28;20050;-71
2022/08/29 05:51:53;;;;;;;0.08;0.08;;;17.80;99.90;;;;;;5006077;28;20145;-71
2022/08/29 05:54:19;;;;;;;0.10;0.10;;;17.80;99.90;;;;;;5009238;28;20092;-72
2022/08/29 05:56:44;;;;;;;0.10;0.10;;;17.80;99.90;;;;;;5001949;28;20046;-71
2022/08/29 05:59:12;;;;;;;0.00;0.00;;;17.80;99.90;;;;;;4999477;28;20053;-72
2022/08/29 06:01:38;;;;;;;0.10;0.10;;;17.80;99.90;;;;;;4998113;28;20097;-71
2022/08/29 06:04:04;;;;;;;0.03;0.03;;;17.80;99.90;;;;;;4989709;28;20129;-71
2022/08/29 06:06:29;;;;;;;0.00;0.00;;;17.80;99.90;;;;;;5004138;28;20121;-71
2022/08/29 06:08:56;;;;;;;0.00;0.00;;;17.80;99.90;;;;;;5011258;28;20068;-71
2022/08/29 06:11:26;;;;;;;0.05;0.05;;;17.80;99.90;;;;;;4995857;28;20418;-71
2022/08/29 06:13:52;;;;;;;0.10;0.10;;;17.80;99.90;;;;;;4993638;28;20137;-70
2022/08/29 06:16:19;;;;;;;0.10;0.10;;;17.80;99.90;;;;;;4993168;28;20129;-70
2022/08/29 06:18:46;;;;;;;0.03;0.03;;;17.80;99.90;;;;;;4993169;28;20046;-70
2022/08/29 06:21:13;;;;;;;0.00;0.00;;;17.80;99.90;;;;;;5000294;28;20069;-70
2022/08/29 06:23:39;;;;;;;0.00;0.00;;;17.80;99.90;;;;;;5013559;28;20112;-70
2022/08/29 06:26:06;;;;;;;0.00;0.00;;;17.90;99.90;;;;;;5004496;28;20085;-70
2022/08/29 06:28:34;;;;;;;0.43;0.40;;;17.90;99.90;;;;;;5000200;28;20088;-70
2022/08/29 06:31:19;;;;;;;2.05;0.47;;;17.90;99.90;;;;;;5005537;28;20042;-71
2022/08/29 06:33:44;;;;;;;0.00;0.00;;;18.00;99.90;;;;;;5009302;28;20045;-70
2022/08/29 06:36:10;;;;;;;0.03;0.03;;;18.00;99.90;;;;;;5005670;28;20082;-70
2022/08/29 06:38:36;;;;;;;0.10;0.10;;;18.10;99.90;;;;;;5010226;28;20073;-70
2022/08/29 06:41:04;;;;;;;0.10;0.10;;;18.10;99.90;;;;;;4995636;28;20125;-70
2022/08/29 06:43:29;;;;;;;0.00;0.00;;;18.20;99.90;;;;;;4994005;28;20663;-70
2022/08/29 06:45:55;;;;;;;0.00;0.00;;;18.30;99.90;;;;;;4994973;28;20146;-70
2022/08/29 06:48:20;;;;;;;0.00;0.00;;;18.30;99.90;;;;;;5008859;28;20050;-70
2022/08/29 06:50:46;;;;;;;0.08;0.08;;;18.40;99.90;;;;;;4999678;28;20048;-70
2022/08/29 06:53:11;;;;;;;0.00;0.00;;;18.50;99.90;;;;;;4991909;28;20042;-70
2022/08/29 06:55:37;;;;;;;0.65;0.65;;;18.60;99.90;;;;;;5012804;28;20482;-71
2022/08/29 06:58:04;;;;;;;0.10;0.10;;;18.60;99.90;;;;;;5012803;28;20046;-70
2022/08/29 07:00:29;;;;;;;0.00;0.00;;;18.60;99.90;;;;;;4997108;28;20069;-70
2022/08/29 07:02:55;;;;;;;0.00;0.00;;;18.70;99.90;;;;;;5006040;28;20092;-70
2022/08/29 07:05:22;;;;;;;0.25;0.25;;;18.70;99.90;;;;;;4997882;28;20042;-70
2022/08/29 07:07:50;;;;;;;1.02;0.20;;;18.70;99.90;;;;;;4997480;28;20176;-70
2022/08/29 07:10:16;;;;;;;0.00;0.00;;;18.70;99.90;;;;;;5008993;28;20065;-70
2022/08/29 07:12:42;;;;;;;0.20;0.20;;;18.80;99.90;;;;;;5009796;28;20058;-70
2022/08/29 07:15:08;;;;;;;0.10;0.10;;;18.80;99.90;;;;;;5004310;28;20482;-70
2022/08/29 07:17:34;;;;;;;0.00;0.00;;;18.80;99.90;;;;;;4989824;28;20050;-70
2022/08/29 07:19:59;;;;;;;0.10;0.10;;;18.80;99.90;;;;;;4990222;28;20057;-70
2022/08/29 07:22:25;;;;;;;0.00;0.00;;;18.90;99.90;;;;;;4990609;28;20613;-70
2022/08/29 07:24:52;;;;;;;0.00;0.00;;;19.00;99.90;;;;;;4995503;28;20160;-70
2022/08/29 07:27:18;;;;;;;2.95;0.52;;;19.10;99.90;;;;;;4990856;28;20168;-70
2022/08/29 07:29:43;;;;;;;0.85;0.52;;;19.20;99.90;;;;;;5005891;28;20136;-70
2022/08/29 07:32:09;;;;;;;0.10;0.10;;;19.10;99.90;;;;;;4991076;28;20494;-70
2022/08/29 07:34:35;;;;;;;0.03;0.03;;;19.20;99.90;;;;;;4991265;28;20045;-70
2022/08/29 07:37:03;;;;;;;0.10;0.10;;;19.20;99.90;;;;;;5002174;28;20054;-70
2022/08/29 07:39:28;;;;;;;0.10;0.10;;;19.20;99.90;;;;;;5008694;28;20480;-70
2022/08/29 07:41:54;;;;;;;0.00;0.00;;;19.20;99.90;;;;;;4995605;28;20161;-71
2022/08/29 07:44:20;;;;;;;0.00;0.00;;;19.20;99.90;;;;;;5008991;28;20048;-70
2022/08/29 07:46:45;;;;;;;7.78;0.30;;;19.30;99.90;;;;;;5001348;28;20050;-71
2022/08/29 07:49:11;;;;;;;0.20;0.20;;;19.30;99.90;;;;;;5000355;28;20090;-70
2022/08/29 07:51:38;;;;;;;0.05;0.05;;;19.40;99.90;;;;;;5010353;28;20176;-71
2022/08/29 07:54:05;;;;;;;0.10;0.10;;;19.40;99.90;;;;;;5005836;28;20046;-70
2022/08/29 07:56:38;;;;;;;0.00;0.00;;;19.40;99.90;;;;;;4992432;28;20043;-71
2022/08/29 07:59:05;;;;;;;0.20;0.20;;;19.40;99.90;;;;;;4975455;28;1036664;-71
2022/08/29 08:01:31;;;;;;;0.00;0.00;;;19.50;99.90;;;;;;5011145;28;20493;-70
2022/08/29 08:03:57;;;;;;;0.32;0.32;;;19.50;99.90;;;;;;4997210;28;20047;-70
2022/08/29 08:06:24;;;;;;;0.00;0.00;;;19.50;99.90;;;;;;4998721;28;20037;-70
2022/08/29 08:08:50;;;;;;;0.08;0.08;;;19.50;99.90;;;;;;5011204;28;20069;-70
2022/08/29 08:11:17;;;;;;;0.88;0.30;;;19.50;99.90;;;;;;4991042;28;20393;-70
2022/08/29 08:13:43;;;;;;;0.75;0.45;;;19.60;99.90;;;;;;4997259;28;20057;-70
2022/08/29 08:16:12;;;;;;;0.65;0.65;;;19.60;99.90;;;;;;4991844;28;20858;-70
2022/08/29 08:18:39;;;;;;;0.05;0.05;;;19.70;99.90;;;;;;5008073;28;20072;-70
2022/08/29 08:21:05;;;;;;;0.10;0.10;;;19.80;99.90;;;;;;5009613;28;20042;-70
2022/08/29 08:23:31;;;;;;;0.00;0.00;;;19.80;99.90;;;;;;5005055;28;20054;-70
2022/08/29 08:25:56;;;;;;;3.75;0.80;;;19.90;99.90;;;;;;4991352;28;20046;-70
2022/08/29 08:28:22;;;;;;;0.15;0.15;;;19.90;99.90;;;;;;4997924;28;20038;-70
2022/08/29 08:30:48;;;;;;;0.00;0.00;;;20.00;99.90;;;;;;4996446;28;20142;-70
2022/08/29 08:33:13;;;;;;;1.85;1.00;;;20.00;99.90;;;;;;4994992;28;20081;-70
2022/08/29 08:35:39;;;;;;;0.00;0.00;;;20.00;99.90;;;;;;4993278;28;20449;-70
2022/08/29 08:38:07;;;;;;;0.22;0.22;;;20.00;99.90;;;;;;4991097;28;20483;-70
2022/08/29 08:40:38;;;;;;;0.00;0.00;;;20.10;99.90;;;;;;4997809;28;20101;-71
2022/08/29 08:43:08;;;;;;;0.15;0.15;;;20.20;99.90;;;;;;5006431;28;20045;-71
2022/08/29 08:45:39;;;;;;;3.20;1.65;;;20.20;99.90;;;;;;5009597;28;20137;-70
2022/08/29 08:48:09;;;;;;;0.22;0.22;;;20.00;99.90;;;;;;5000450;28;20514;-70
2022/08/29 08:50:42;;;;;;;0.00;0.00;;;20.00;99.90;;;;;;5000975;28;20069;-71
2022/08/29 08:53:40;;;;;;;0.00;0.00;;;20.00;99.90;;;;;;4997957;28;20041;-70
2022/08/29 08:56:29;;;;;;;0.00;0.00;;;20.20;99.90;;;;;;4996175;28;20042;-71
2022/08/29 08:59:02;;;;;;;0.00;0.00;;;20.40;99.90;;;;;;5002804;28;20050;-71
2022/08/29 09:01:35;;;;;;;0.10;0.10;;;20.50;99.90;;;;;;4993084;28;20078;-72
2022/08/29 09:04:39;;;;;;;0.00;0.00;;;20.70;99.90;;;;;;4990408;28;20074;-72
2022/08/29 09:07:17;;;;;;;0.20;0.20;;;20.90;99.90;;;;;;4989026;28;20061;-71
2022/08/29 09:10:03;;;;;;;0.10;0.05;;;21.10;99.90;;;;;;4991367;28;20054;-71
2022/08/29 09:12:31;;;;;;;0.00;0.00;;;21.10;99.90;;;;;;5010172;28;20085;-71
2022/08/29 09:15:12;;;;;;;0.00;0.00;;;21.40;99.90;;;;;;5008808;28;20490;-71
2022/08/29 09:17:45;;;;;;;0.00;0.00;;;21.60;99.90;;;;;;5009910;28;20042;-71
2022/08/29 09:20:21;;;;;;;0.20;0.17;;;21.70;99.90;;;;;;5000351;28;20042;-71
2022/08/29 09:22:59;;;;;;;0.00;0.00;;;21.60;99.90;;;;;;4988893;28;20054;-71
2022/08/29 09:25:27;;;;;;;0.10;0.10;;;21.60;99.90;;;;;;4995151;28;20407;-69
2022/08/29 09:27:52;;;;;;;0.00;0.00;;;21.50;99.90;;;;;;4998014;28;20108;-71
2022/08/29 09:30:24;;;;;;;0.17;0.17;;;21.50;99.90;;;;;;5009298;28;20045;-71
2022/08/29 09:33:00;;;;;;;3.40;0.65;;;21.40;99.90;;;;;;5008936;28;20041;-71
2022/08/29 09:35:38;;;;;;;0.00;0.00;;;21.20;99.90;;;;;;4990710;28;20054;-72
2022/08/29 09:38:07;;;;;;;0.00;0.00;;;21.10;99.90;;;;;;5008817;28;20111;-72
2022/08/29 09:40:55;;;;;;;1.35;0.63;;;21.10;99.90;;;;;;4997968;28;20498;-72
2022/08/29 09:43:26;;;;;;;0.00;0.00;;;20.90;99.90;;;;;;4989580;28;20043;-71
2022/08/29 09:46:23;;;;;;;0.20;0.20;;;21.00;99.90;;;;;;4994194;28;20530;-70
2022/08/29 09:48:52;;;;;;;0.20;0.20;;;21.10;99.90;;;;;;4992442;28;20062;-71
2022/08/29 09:51:28;;;;;;;0.08;0.08;;;21.10;99.90;;;;;;4990260;28;20608;-71
2022/08/29 09:54:35;;;;;;;0.00;0.00;;;21.10;99.90;;;;;;4990493;28;20065;-71
2022/08/29 09:57:07;;;;;;;0.10;0.10;;;21.30;99.90;;;;;;4991591;28;20077;-71
2022/08/29 09:59:38;;;;;;;0.45;0.30;;;21.30;99.90;;;;;;5007148;28;20107;-70
2022/08/29 10:02:20;;;;;;;0.20;0.15;;;21.10;99.90;;;;;;4990949;28;20052;-71
2022/08/29 10:05:01;;;;;;;0.10;0.10;;;21.20;99.90;;;;;;4993348;28;20050;-71
2022/08/29 10:07:28;;;;;;;0.00;0.00;;;21.20;99.90;;;;;;4990711;28;20046;-71
2022/08/29 10:10:05;;;;;;;0.17;0.17;;;21.40;99.90;;;;;;4988595;28;20042;-71
2022/08/29 10:12:52;;;;;;;0.00;0.00;;;21.40;99.90;;;;;;4994312;28;20041;-72
2022/08/29 10:15:25;;;;;;;0.00;0.00;;;21.40;99.90;;;;;;4998115;28;20052;-72
2022/08/29 10:18:20;;;;;;;0.00;0.00;;;21.20;99.90;;;;;;4993638;28;20118;-72
2022/08/29 10:21:03;;;;;;;0.00;0.00;;;21.20;99.90;;;;;;4991468;28;20057;-72
2022/08/29 10:23:48;;;;;;;0.10;0.10;;;21.20;99.90;;;;;;4988742;28;20104;-72
2022/08/29 10:26:29;;;;;;;0.00;0.00;;;21.10;99.90;;;;;;4990340;28;20054;-71
2022/08/29 10:29:03;;;;;;;0.00;0.00;;;21.20;99.90;;;;;;4999731;28;20050;-71
2022/08/29 10:31:43;;;;;;;0.00;0.00;;;21.20;99.90;;;;;;4990015;28;20050;-71
2022/08/29 10:34:15;;;;;;;0.00;0.00;;;21.10;99.90;;;;;;4990196;28;20502;-71
2022/08/29 10:36:48;;;;;;;0.00;0.00;;;21.10;99.90;;;;;;4989813;28;20045;-71
2022/08/29 10:39:31;;;;;;;0.00;0.00;;;21.00;99.90;;;;;;4990291;28;20074;-71
2022/08/29 10:42:14;;;;;;;0.10;0.10;;;21.00;99.90;;;;;;4999932;28;20069;-71
2022/08/29 10:45:05;;;;;;;0.05;0.05;;;21.00;99.90;;;;;;4989750;28;20053;-71
2022/08/29 10:47:57;;;;;;;0.03;0.03;;;21.10;99.90;;;;;;4995327;28;20084;-71
2022/08/29 10:50:45;;;;;;;0.00;0.00;;;21.20;99.90;;;;;;4990501;28;20046;-71
2022/08/29 10:53:22;;;;;;;0.15;0.15;;;21.30;99.90;;;;;;4993534;28;20046;-71
2022/08/29 10:56:00;;;;;;;0.08;0.08;;;21.50;99.90;;;;;;4993307;28;20077;-71
2022/08/29 10:58:48;;;;;;;0.00;0.00;;;21.60;99.90;;;;;;5008260;28;20494;-71
2022/08/29 11:01:28;;;;;;;0.10;0.10;;;21.50;99.90;;;;;;4994431;28;20078;-71
2022/08/29 11:04:17;;;;;;;0.00;0.00;;;21.50;99.90;;;;;;4992875;28;20617;-71
2022/08/29 11:06:47;;;;;;;0.20;0.20;;;21.50;99.90;;;;;;4992049;28;20406;-71
2022/08/29 11:09:19;;;;;;;0.40;0.40;;;21.50;99.90;;;;;;4991940;28;20050;-71
2022/08/29 11:11:55;;;;;;;0.30;0.30;;;21.50;99.90;;;;;;4994014;28;20081;-71
2022/08/29 11:14:26;;;;;;;0.13;0.13;;;21.50;99.90;;;;;;4992695;28;20494;-71
2022/08/29 11:16:54;;;;;;;0.82;0.80;;;21.60;99.90;;;;;;4993510;28;20073;-71
2022/08/29 11:19:35;;;;;;;0.20;0.20;;;21.70;99.90;;;;;;5005740;28;20625;-71
2022/08/29 11:22:40;;;;;;;0.00;0.00;;;21.80;99.90;;;;;;4993026;28;20042;-71
2022/08/29 11:25:15;;;;;;;2.20;0.85;;;21.80;99.90;;;;;;4988816;28;20573;-71
2022/08/29 11:28:04;;;;;;;0.00;0.00;;;21.80;99.90;;;;;;5000997;28;20042;-70
2022/08/29 11:30:44;;;;;;;0.57;0.35;;;21.70;99.90;;;;;;4998477;28;20426;-71
2022/08/29 11:33:22;;;;;;;0.20;0.20;;;21.60;99.90;;;;;;4995033;28;20050;-71
2022/08/29 11:36:18;;;;;;;0.10;0.10;;;21.70;99.90;;;;;;4998099;28;20104;-71
2022/08/29 11:39:03;;;;;;;0.22;0.22;;;21.80;99.90;;;;;;5007125;28;20042;-71
2022/08/29 11:41:37;;;;;;;0.00;0.00;;;21.60;99.90;;;;;;4994762;28;20044;-70
2022/08/29 11:44:12;;;;;;;0.22;0.22;;;21.50;99.90;;;;;;4999562;28;20129;-71
2022/08/29 11:46:46;;;;;;;1.30;0.95;;;21.40;99.90;;;;;;5002944;28;20109;-72
2022/08/29 11:49:23;;;;;;;0.00;0.00;;;21.40;99.90;;;;;;5008586;28;20053;-72
2022/08/29 11:51:54;;;;;;;0.05;0.05;;;21.30;99.90;;;;;;5007489;28;20050;-72
2022/08/29 11:54:22;;;;;;;0.55;0.55;;;21.20;99.90;;;;;;4995962;28;20046;-72
2022/08/29 11:57:01;;;;;;;0.20;0.20;;;21.20;99.90;;;;;;4997728;28;20129;-71
2022/08/29 11:59:48;;;;;;;0.00;0.00;;;21.10;99.90;;;;;;4998767;28;20129;-71
2022/08/29 12:02:29;;;;;;;0.28;0.28;;;21.20;99.90;;;;;;5009883;28;20397;-73
2022/08/29 12:05:07;;;;;;;0.00;0.00;;;21.10;99.90;;;;;;5010874;28;20053;-72
2022/08/29 12:08:00;;;;;;;0.40;0.40;;;21.20;99.90;;;;;;5010196;28;20041;-72
2022/08/29 12:10:31;;;;;;;0.10;0.10;;;21.30;99.90;;;;;;4997861;28;20381;-73
2022/08/29 12:13:04;;;;;;;0.00;0.00;;;21.40;99.90;;;;;;5010932;28;20050;-72
2022/08/29 12:15:36;;;;;;;;;;;21.40;99.90;;;;;;5002166;28;20042;-72
2022/08/29 12:18:15;;;;;;;2.00;0.52;;;21.40;99.90;;;;;;4991810;28;19957;-72
2022/08/29 12:20:54;;;;;;;0.00;0.00;;;21.50;99.90;;;;;;4991359;28;20050;-72
2022/08/29 12:23:29;;;;;;;0.00;0.00;;;21.40;99.90;;;;;;5009549;28;20054;-72
2022/08/29 12:25:59;;;;;;;0.30;0.22;;;21.40;99.90;;;;;;5011357;28;20042;-71
2022/08/29 12:28:59;;;;;;;6.03;1.08;;;21.50;99.90;;;;;;5010619;28;20498;-72
2022/08/29 12:31:37;;;;;;;0.03;0.03;;;21.40;99.90;;;;;;4992435;28;20129;-72
2022/08/29 12:34:33;;;;;;;3.60;0.73;;;21.50;99.90;;;;;;4991487;28;20054;-72
2022/08/29 12:37:23;;;;;;;0.00;0.00;;;21.60;99.90;;;;;;5004562;28;20105;-72
2022/08/29 12:40:07;;;;;;;0.10;0.10;;;21.50;99.90;;;;;;5003831;28;20129;-72
2022/08/29 12:43:00;;;;;;;0.40;0.40;;;21.40;99.90;;;;;;4999360;28;20053;-72
2022/08/29 12:45:29;;;;;;;0.00;0.00;;;21.30;99.90;;;;;;5002755;28;20049;-72
2022/08/29 12:48:17;;;;;;;1.95;0.35;;;21.30;99.90;;;;;;5000754;28;20057;-72
2022/08/29 12:50:46;;;;;;;0.00;0.00;;;21.30;99.90;;;;;;5003089;28;20049;-72
2022/08/29 12:53:23;;;;;;;0.47;0.35;;;21.20;99.90;;;;;;4994673;28;20050;-72
2022/08/29 12:56:02;;;;;;;0.10;0.10;;;21.20;99.90;;;;;;5008834;28;20121;-72
2022/08/29 12:58:52;;;;;;;0.38;0.30;;;21.30;99.90;;;;;;5004497;28;20137;-72
2022/08/29 13:01:24;;;;;;;0.10;0.10;;;21.30;99.90;;;;;;5002188;28;20042;-72
2022/08/29 13:04:12;;;;;;;0.00;0.00;;;21.30;99.90;;;;;;5011055;28;20048;-72
2022/08/29 13:06:51;;;;;;;4.60;0.30;;;21.40;99.90;;;;;;5001365;28;20049;-72
2022/08/29 13:09:47;;;;;;;0.00;0.00;;;21.40;99.90;;;;;;4994811;28;20082;-72